Time;durP1;ratioP1;P1;durP2;ratioP2;P2;SDS_P1;SDS_P2;PMS_P1;PMS_P2;Temp;Humidity;BMP_temperature;BMP_pressure;BME280_temperature;BME280_humidity;BME280_pressure;Samples;Min_cycle;Max_cycle;Signal;HPM_P1;HPM_P2
2022/03/20 00:01:23;;;;;;;5.22;4.18;;;18.10;30.70;;;;;;5148207;27;48042;-21
2022/03/20 00:03:49;;;;;;;5.43;4.72;;;18.10;30.80;;;;;;5147732;27;46984;-20
2022/03/20 00:06:16;;;;;;;5.18;4.00;;;18.10;30.80;;;;;;5148054;27;46882;-20
2022/03/20 00:08:43;;;;;;;6.60;4.40;;;18.10;30.80;;;;;;5147984;27;47114;-20
2022/03/20 00:11:09;;;;;;;4.93;4.25;;;18.00;30.80;;;;;;5147839;27;48125;-20
2022/03/20 00:13:36;;;;;;;5.53;4.47;;;18.10;30.80;;;;;;5147978;27;47015;-21
2022/03/20 00:16:05;;;;;;;6.03;4.20;;;18.10;30.80;;;;;;5148071;27;46879;-20
2022/03/20 00:18:32;;;;;;;5.25;4.65;;;18.00;30.80;;;;;;5148008;27;47315;-21
2022/03/20 00:20:59;;;;;;;4.57;4.15;;;18.00;30.90;;;;;;5147816;27;47069;-21
2022/03/20 00:23:26;;;;;;;5.40;4.43;;;18.00;30.90;;;;;;5147809;27;46989;-21
2022/03/20 00:25:53;;;;;;;6.40;4.60;;;18.00;31.00;;;;;;5147883;27;46874;-20
2022/03/20 00:28:23;;;;;;;5.28;4.63;;;18.00;30.90;;;;;;5148021;27;46961;-21
2022/03/20 00:30:49;;;;;;;5.65;4.57;;;18.00;31.00;;;;;;5147533;27;48863;-21
2022/03/20 00:33:17;;;;;;;5.38;4.13;;;18.00;31.00;;;;;;5147665;27;46816;-20
2022/03/20 00:35:44;;;;;;;4.57;4.15;;;18.00;31.00;;;;;;5147691;27;46844;-21
2022/03/20 00:38:11;;;;;;;6.22;4.60;;;17.90;30.90;;;;;;5147684;27;47290;-20
2022/03/20 00:40:38;;;;;;;5.68;4.30;;;17.90;31.00;;;;;;5147661;27;47941;-19
2022/03/20 00:43:05;;;;;;;5.05;4.47;;;17.90;31.00;;;;;;5147360;27;47007;-20
2022/03/20 00:45:32;;;;;;;7.93;4.47;;;17.90;31.00;;;;;;5147573;27;47046;-20
2022/03/20 00:47:58;;;;;;;4.93;4.47;;;17.90;31.00;;;;;;5147752;27;46887;-20
2022/03/20 00:50:28;;;;;;;5.97;4.68;;;17.90;31.10;;;;;;5147207;27;47883;-21
2022/03/20 00:52:55;;;;;;;5.28;4.35;;;17.90;31.10;;;;;;5147482;27;46815;-20
2022/03/20 00:55:21;;;;;;;4.70;4.00;;;17.90;31.10;;;;;;5147617;27;46926;-20
2022/03/20 00:57:48;;;;;;;5.22;4.00;;;17.90;31.20;;;;;;5147532;27;47207;-20
2022/03/20 01:00:16;;;;;;;5.95;4.78;;;17.90;31.20;;;;;;5147023;27;48908;-20
2022/03/20 01:02:44;;;;;;;5.07;4.57;;;17.90;31.20;;;;;;5147195;27;47442;-20
2022/03/20 01:05:11;;;;;;;4.65;3.95;;;17.90;31.20;;;;;;5146995;27;46923;-21
2022/03/20 01:07:39;;;;;;;5.05;4.07;;;17.90;31.20;;;;;;5147525;27;46920;-21
2022/03/20 01:10:06;;;;;;;4.80;4.32;;;18.00;31.10;;;;;;5146503;27;49133;-20
2022/03/20 01:12:33;;;;;;;4.93;4.40;;;18.20;31.00;;;;;;5146928;27;46883;-21
2022/03/20 01:15:00;;;;;;;4.70;4.15;;;18.20;30.70;;;;;;5147178;27;46994;-21
2022/03/20 01:17:26;;;;;;;7.32;4.93;;;18.40;30.60;;;;;;5151064;27;46825;-21
2022/03/20 01:19:53;;;;;;;4.85;4.35;;;18.40;30.50;;;;;;5150523;27;48658;-20
2022/03/20 01:22:20;;;;;;;4.90;4.47;;;18.50;30.40;;;;;;5150689;27;46821;-21
2022/03/20 01:24:48;;;;;;;5.70;4.45;;;18.50;30.30;;;;;;5150750;27;46879;-21
2022/03/20 01:27:15;;;;;;;5.55;4.13;;;18.60;30.30;;;;;;5150289;27;46963;-20
2022/03/20 01:29:42;;;;;;;4.90;4.40;;;18.60;30.20;;;;;;5150310;27;47281;-21
2022/03/20 01:32:10;;;;;;;4.57;4.18;;;18.60;30.10;;;;;;5150267;27;47110;-21
2022/03/20 01:34:37;;;;;;;6.43;4.32;;;18.60;30.10;;;;;;5150549;27;46843;-21
2022/03/20 01:37:04;;;;;;;4.88;4.20;;;18.60;30.10;;;;;;5150705;27;47303;-20
2022/03/20 01:39:31;;;;;;;5.55;4.43;;;18.70;30.20;;;;;;5149888;27;47080;-21
2022/03/20 01:41:59;;;;;;;7.00;4.68;;;18.70;30.10;;;;;;5150649;27;46805;-21
2022/03/20 01:44:30;;;;;;;6.07;4.47;;;18.70;30.10;;;;;;5150520;27;46990;-21
2022/03/20 01:46:57;;;;;;;5.55;4.25;;;18.60;30.10;;;;;;5150860;27;46887;-21
2022/03/20 01:49:24;;;;;;;4.43;4.00;;;18.60;30.10;;;;;;5150075;27;46831;-21
2022/03/20 01:54:34;;;;;;;4.32;3.92;;;18.60;30.10;;;;;;5149551;27;46862;-21
2022/03/20 01:57:03;;;;;;;4.32;3.92;;;18.60;30.20;;;;;;5149869;27;46915;-20
2022/03/20 01:59:29;;;;;;;4.18;3.78;;;18.60;30.10;;;;;;5149915;27;48853;-20
2022/03/20 02:01:56;;;;;;;4.97;3.80;;;18.60;30.20;;;;;;5149659;27;47711;-21
2022/03/20 02:04:23;;;;;;;5.95;4.07;;;18.60;30.20;;;;;;5149951;27;46832;-21
2022/03/20 02:06:49;;;;;;;5.32;4.07;;;18.60;30.20;;;;;;5149485;27;46769;-21
2022/03/20 02:09:17;;;;;;;5.30;4.03;;;18.60;30.20;;;;;;5149532;27;47045;-20
2022/03/20 02:11:43;;;;;;;4.22;3.78;;;18.60;30.30;;;;;;5149432;27;47015;-20
2022/03/20 02:14:11;;;;;;;4.25;3.72;;;18.50;30.30;;;;;;5149337;27;46944;-21
2022/03/20 02:16:39;;;;;;;4.55;3.85;;;18.50;30.30;;;;;;5150062;27;47170;-21
2022/03/20 02:19:08;;;;;;;4.88;3.60;;;18.50;30.30;;;;;;5149657;27;49119;-21
2022/03/20 02:21:40;;;;;;;5.05;3.70;;;18.50;30.40;;;;;;5149577;27;46917;-21
2022/03/20 02:24:32;;;;;;;4.18;3.78;;;18.50;30.40;;;;;;5149349;27;46968;-21
2022/03/20 02:27:06;;;;;;;4.30;3.40;;;18.40;30.30;;;;;;5148773;27;47136;-21
2022/03/20 02:29:33;;;;;;;5.80;3.78;;;18.40;30.40;;;;;;5148567;27;47948;-20
2022/03/20 02:31:59;;;;;;;4.00;3.60;;;18.40;30.50;;;;;;5149795;27;46866;-21
2022/03/20 02:34:26;;;;;;;4.95;3.50;;;18.40;30.50;;;;;;5149352;27;46824;-21
2022/03/20 02:36:55;;;;;;;4.68;3.75;;;18.40;30.50;;;;;;5149246;27;47280;-21
2022/03/20 02:39:21;;;;;;;4.90;3.53;;;18.40;30.60;;;;;;5149152;27;47827;-21
2022/03/20 02:41:48;;;;;;;5.15;3.53;;;18.30;30.50;;;;;;5149456;27;47040;-20
2022/03/20 02:44:15;;;;;;;4.38;3.38;;;18.30;30.60;;;;;;5148839;27;46900;-20
2022/03/20 02:46:42;;;;;;;4.13;3.72;;;18.30;30.70;;;;;;5149326;27;47299;-21
2022/03/20 02:49:09;;;;;;;3.88;3.35;;;18.20;30.60;;;;;;5148016;27;48822;-21
2022/03/20 02:51:36;;;;;;;4.70;3.63;;;18.30;30.80;;;;;;5149417;27;46920;-21
2022/03/20 02:54:05;;;;;;;6.47;4.22;;;18.20;30.70;;;;;;5148576;27;47026;-21
2022/03/20 02:56:33;;;;;;;4.90;3.55;;;18.20;30.80;;;;;;5149614;27;46894;-20
2022/03/20 02:59:00;;;;;;;3.75;3.35;;;18.20;30.80;;;;;;5148543;27;47854;-21
2022/03/20 03:01:27;;;;;;;3.75;3.25;;;18.20;30.90;;;;;;5148432;27;46793;-21
2022/03/20 03:03:54;;;;;;;4.00;3.30;;;18.20;30.90;;;;;;5148755;27;46923;-20
2022/03/20 03:06:21;;;;;;;4.93;3.67;;;18.20;31.00;;;;;;5149400;27;46827;-20
2022/03/20 03:11:33;;;;;;;4.20;3.30;;;18.10;30.90;;;;;;5148779;27;46960;-21
2022/03/20 03:15:18;;;;;;;4.38;3.22;;;18.10;31.00;;;;;;5148854;27;46965;-21
2022/03/20 03:16:47;;;;;;;4.15;3.35;;;18.10;31.00;;;;;;5128654;27;46990;-21
2022/03/20 03:19:15;;;;;;;6.43;3.72;;;18.10;31.10;;;;;;5128042;27;49388;-21
2022/03/20 03:21:42;;;;;;;4.20;3.53;;;18.10;31.10;;;;;;5140520;27;46987;-21
2022/03/20 03:24:08;;;;;;;3.80;3.33;;;18.10;31.10;;;;;;5149054;27;47010;-21
2022/03/20 03:26:36;;;;;;;3.92;3.50;;;18.00;31.20;;;;;;5149185;27;46845;-19
2022/03/20 03:29:03;;;;;;;3.40;3.10;;;18.00;31.10;;;;;;5148322;27;48222;-20
2022/03/20 03:31:30;;;;;;;4.60;3.42;;;18.00;31.20;;;;;;5148706;27;46875;-20
2022/03/20 03:36:41;;;;;;;3.50;3.20;;;18.00;31.20;;;;;;5146288;27;46744;-20
2022/03/20 03:39:09;;;;;;;4.93;3.67;;;18.00;31.20;;;;;;5147608;27;49230;-21
2022/03/20 03:41:37;;;;;;;3.72;3.28;;;17.90;31.20;;;;;;5148967;27;47458;-20
2022/03/20 03:44:04;;;;;;;3.65;3.33;;;17.90;31.30;;;;;;5148275;27;46819;-20
2022/03/20 03:46:31;;;;;;;4.97;3.47;;;17.90;31.40;;;;;;5148456;27;47251;-20
2022/03/20 03:48:57;;;;;;;4.13;3.10;;;17.90;31.40;;;;;;5148138;27;48076;-20
2022/03/20 03:51:24;;;;;;;4.68;3.70;;;17.90;31.40;;;;;;5148511;27;46844;-20
2022/03/20 03:53:51;;;;;;;5.88;3.60;;;17.90;31.50;;;;;;5148397;27;47016;-21
2022/03/20 03:56:19;;;;;;;3.47;3.17;;;17.90;31.50;;;;;;5148391;27;47314;-20
2022/03/20 03:58:47;;;;;;;3.45;3.15;;;17.90;31.50;;;;;;5148006;27;48209;-21
2022/03/20 04:01:14;;;;;;;3.47;2.97;;;17.90;31.50;;;;;;5148059;27;46892;-21
2022/03/20 04:03:40;;;;;;;3.53;3.15;;;17.90;31.60;;;;;;5148464;27;46896;-20
2022/03/20 04:06:09;;;;;;;4.28;3.58;;;17.80;31.60;;;;;;5148896;27;46846;-20
2022/03/20 04:08:35;;;;;;;3.65;3.28;;;17.80;31.60;;;;;;5147386;27;48766;-19
2022/03/20 04:11:02;;;;;;;3.17;2.92;;;17.80;31.60;;;;;;5146602;27;47141;-20
2022/03/20 04:13:29;;;;;;;4.18;3.58;;;17.80;31.70;;;;;;5147932;27;46940;-20
2022/03/20 04:15:57;;;;;;;5.63;3.75;;;17.80;31.60;;;;;;5147565;27;47275;-20
2022/03/20 04:18:24;;;;;;;4.18;3.50;;;17.80;31.70;;;;;;5147373;27;47944;-20
2022/03/20 04:20:51;;;;;;;4.57;3.47;;;17.80;31.70;;;;;;5147800;27;47245;-20
2022/03/20 04:26:02;;;;;;;3.50;3.10;;;17.80;31.70;;;;;;5144565;27;47137;-20
2022/03/20 04:28:29;;;;;;;3.60;3.13;;;17.80;31.70;;;;;;5146625;27;49057;-20
2022/03/20 04:30:58;;;;;;;3.97;2.97;;;17.80;31.70;;;;;;5126968;27;47618;-20
2022/03/20 04:33:25;;;;;;;3.95;3.60;;;17.80;31.80;;;;;;5139851;27;46912;-21
2022/03/20 04:35:52;;;;;;;3.55;3.15;;;17.80;31.80;;;;;;5147866;27;46934;-21
2022/03/20 04:38:21;;;;;;;4.63;3.60;;;17.80;31.80;;;;;;5147095;27;47082;-21
2022/03/20 04:40:48;;;;;;;3.53;3.22;;;17.80;31.80;;;;;;5147607;27;46896;-21
2022/03/20 04:43:15;;;;;;;5.28;3.65;;;17.80;31.80;;;;;;5146871;27;46840;-21
2022/03/20 04:45:41;;;;;;;3.97;2.97;;;17.80;31.80;;;;;;5147157;27;46895;-21
2022/03/20 04:59:06;;;;;;;5.03;3.60;;;17.70;31.90;;;;;;5145699;27;46808;-21
2022/03/20 05:01:33;;;;;;;4.00;2.85;;;17.70;31.90;;;;;;5147176;27;46865;-21
2022/03/20 05:04:01;;;;;;;4.22;3.67;;;17.70;31.90;;;;;;5146599;27;46964;-21
2022/03/20 05:06:27;;;;;;;4.78;3.70;;;17.70;31.90;;;;;;5147475;27;47366;-21
2022/03/20 05:13:19;;;;;;;4.20;3.58;;;17.70;32.00;;;;;;5146742;27;48265;-21
2022/03/20 05:14:25;;;;;;;4.15;3.45;;;17.70;32.00;;;;;;5146168;27;46927;-21
2022/03/20 05:16:52;;;;;;;3.80;3.50;;;17.70;32.00;;;;;;5147479;27;47271;-21
2022/03/20 05:19:21;;;;;;;4.22;3.30;;;17.70;32.00;;;;;;5146002;27;46899;-20
2022/03/20 05:21:47;;;;;;;4.55;3.40;;;17.60;32.00;;;;;;5147133;27;46854;-20
2022/03/20 05:24:14;;;;;;;3.95;3.38;;;17.60;32.00;;;;;;5146933;27;46893;-20
2022/03/20 05:26:41;;;;;;;4.65;3.42;;;17.60;32.10;;;;;;5147163;27;47227;-20
2022/03/20 05:29:07;;;;;;;3.80;3.40;;;17.60;32.10;;;;;;5146172;27;47176;-21
2022/03/20 05:31:34;;;;;;;3.15;2.85;;;17.60;32.10;;;;;;5146420;27;46893;-20
2022/03/20 05:34:01;;;;;;;4.38;3.65;;;17.60;32.10;;;;;;5147036;27;47025;-20
2022/03/20 05:36:29;;;;;;;4.65;3.58;;;17.60;32.20;;;;;;5146558;27;46958;-21
2022/03/20 05:38:56;;;;;;;4.07;3.53;;;17.60;32.20;;;;;;5146156;27;47715;-20
2022/03/20 05:44:11;;;;;;;4.05;3.40;;;17.60;32.20;;;;;;5138300;27;47056;-21
2022/03/20 05:46:38;;;;;;;5.20;3.45;;;17.60;32.30;;;;;;5146723;27;47082;-21
2022/03/20 05:49:05;;;;;;;4.22;3.83;;;17.60;32.30;;;;;;5146631;27;48226;-21
2022/03/20 05:51:34;;;;;;;3.83;3.50;;;17.50;32.30;;;;;;5146365;27;46818;-21
2022/03/20 05:54:00;;;;;;;4.65;3.60;;;17.50;32.30;;;;;;5146025;27;46914;-20
2022/03/20 05:59:11;;;;;;;3.55;3.25;;;17.50;32.40;;;;;;5144731;27;46882;-20
2022/03/20 06:01:39;;;;;;;4.00;3.20;;;17.50;32.40;;;;;;5146844;27;46902;-21
2022/03/20 06:04:06;;;;;;;3.78;3.40;;;17.50;32.40;;;;;;5149618;27;46789;-20
2022/03/20 06:06:35;;;;;;;5.05;3.88;;;17.50;32.40;;;;;;5150256;27;47276;-21
2022/03/20 06:09:02;;;;;;;3.42;3.08;;;17.50;32.40;;;;;;5149691;27;48096;-20
2022/03/20 06:11:29;;;;;;;4.15;3.42;;;17.50;32.50;;;;;;5148885;27;46812;-21
2022/03/20 06:13:55;;;;;;;4.53;3.38;;;17.50;32.50;;;;;;5150012;27;47049;-20
2022/03/20 06:16:22;;;;;;;4.75;3.40;;;17.50;32.50;;;;;;5149956;27;46908;-21
2022/03/20 06:18:49;;;;;;;4.50;3.30;;;17.50;32.50;;;;;;5149221;27;47118;-21
2022/03/20 06:21:16;;;;;;;4.35;3.40;;;17.50;32.60;;;;;;5149483;27;46938;-20
2022/03/20 06:23:45;;;;;;;4.38;3.63;;;17.50;32.50;;;;;;5149926;27;46800;-20
2022/03/20 06:26:12;;;;;;;4.63;3.28;;;17.50;32.60;;;;;;5150137;27;46898;-21
2022/03/20 06:28:40;;;;;;;3.83;3.35;;;17.50;32.60;;;;;;5148995;27;48908;-20
2022/03/20 06:31:09;;;;;;;3.80;3.40;;;17.50;32.60;;;;;;5149621;27;47105;-20
2022/03/20 06:33:36;;;;;;;4.63;3.40;;;17.50;32.60;;;;;;5149500;27;46843;-21
2022/03/20 06:36:03;;;;;;;3.90;3.50;;;17.50;32.60;;;;;;5149960;27;47362;-21
2022/03/20 06:38:30;;;;;;;4.72;3.65;;;17.50;32.60;;;;;;5149292;27;47943;-20
2022/03/20 06:40:58;;;;;;;3.63;3.33;;;17.50;32.60;;;;;;5148870;27;47012;-21
2022/03/20 06:43:25;;;;;;;4.05;3.50;;;17.50;32.70;;;;;;5149407;27;46792;-20
2022/03/20 06:45:53;;;;;;;4.70;3.30;;;17.50;32.70;;;;;;5149645;27;47272;-20
2022/03/20 06:48:19;;;;;;;3.70;3.08;;;17.50;32.80;;;;;;5148822;27;49073;-20
2022/03/20 06:50:46;;;;;;;3.67;3.30;;;17.40;32.80;;;;;;5148629;27;47034;-20
2022/03/20 06:53:13;;;;;;;4.22;3.25;;;17.40;32.80;;;;;;5148860;27;47018;-21
2022/03/20 06:55:39;;;;;;;3.67;3.38;;;17.40;32.80;;;;;;5149245;27;47009;-21
2022/03/20 06:58:07;;;;;;;4.05;3.33;;;17.40;32.80;;;;;;5149001;27;48853;-21
2022/03/20 07:00:34;;;;;;;4.40;3.70;;;17.50;32.90;;;;;;5149008;27;46754;-20
2022/03/20 07:03:03;;;;;;;3.90;3.10;;;17.50;32.90;;;;;;5148671;27;47090;-21
2022/03/20 07:05:29;;;;;;;4.22;3.45;;;17.50;33.00;;;;;;5149057;27;46936;-20
2022/03/20 07:07:56;;;;;;;3.65;3.30;;;17.50;33.00;;;;;;5147990;27;47913;-20
2022/03/20 07:10:24;;;;;;;4.57;3.40;;;17.50;33.00;;;;;;5148540;27;46895;-20
2022/03/20 07:12:50;;;;;;;3.95;3.55;;;17.50;33.00;;;;;;5147686;27;47087;-21
2022/03/20 07:15:19;;;;;;;3.90;3.60;;;17.50;33.00;;;;;;5148212;27;46861;-21
2022/03/20 07:17:47;;;;;;;4.10;3.45;;;17.40;33.00;;;;;;5148802;27;48128;-21
2022/03/20 07:20:15;;;;;;;3.28;2.97;;;17.40;33.10;;;;;;5148117;27;47153;-21
2022/03/20 07:22:42;;;;;;;4.65;3.67;;;17.40;33.10;;;;;;5148501;27;46877;-20
2022/03/20 07:30:56;;;;;;;4.00;3.60;;;17.40;33.10;;;;;;5041204;28;46889;-20
2022/03/20 07:33:24;;;;;;;3.78;3.30;;;17.40;33.20;;;;;;5061898;28;46974;-20
2022/03/20 07:35:51;;;;;;;4.70;3.72;;;17.40;33.30;;;;;;5102827;27;47124;-20
2022/03/20 07:38:18;;;;;;;3.92;3.53;;;17.40;33.30;;;;;;5148213;27;48095;-21
2022/03/20 07:40:44;;;;;;;3.95;3.45;;;17.40;33.40;;;;;;5147585;27;46868;-21
2022/03/20 07:43:11;;;;;;;4.78;3.45;;;17.40;33.40;;;;;;5148397;27;46983;-21
2022/03/20 07:45:38;;;;;;;4.43;3.25;;;17.40;33.50;;;;;;5148464;27;46846;-21
2022/03/20 07:48:06;;;;;;;5.00;3.80;;;17.40;33.50;;;;;;5147560;27;48079;-21
2022/03/20 07:50:33;;;;;;;3.95;3.55;;;17.40;33.50;;;;;;5147626;27;46976;-20
2022/03/20 07:53:00;;;;;;;4.13;3.20;;;17.40;33.60;;;;;;5147950;27;46835;-21
2022/03/20 07:55:28;;;;;;;4.00;3.50;;;17.40;33.60;;;;;;5147710;27;47419;-20
2022/03/20 07:57:55;;;;;;;5.03;3.80;;;17.40;33.60;;;;;;5147163;27;47835;-20
2022/03/20 08:00:22;;;;;;;3.92;3.53;;;17.40;33.60;;;;;;5147526;27;46995;-20
2022/03/20 08:02:48;;;;;;;4.78;3.90;;;17.50;34.30;;;;;;5146497;27;46849;-21
2022/03/20 08:05:17;;;;;;;5.25;3.97;;;17.50;33.80;;;;;;5147291;27;46847;-21
2022/03/20 08:07:44;;;;;;;5.50;3.65;;;17.50;33.70;;;;;;5138452;27;48221;-20
2022/03/20 08:10:12;;;;;;;4.90;3.88;;;17.50;33.70;;;;;;5145729;27;47452;-20
2022/03/20 08:12:39;;;;;;;4.07;3.40;;;17.50;33.80;;;;;;5147003;27;46945;-20
2022/03/20 08:15:06;;;;;;;4.97;3.53;;;17.50;33.90;;;;;;5147811;27;46776;-20
2022/03/20 08:17:42;;;;;;;4.25;3.55;;;17.50;34.00;;;;;;5147405;27;47096;-20
2022/03/20 08:20:10;;;;;;;4.43;4.03;;;17.50;34.00;;;;;;5147268;27;47813;-20
2022/03/20 08:22:38;;;;;;;6.18;3.92;;;17.50;34.10;;;;;;5147480;27;46944;-20
2022/03/20 08:25:06;;;;;;;5.47;4.13;;;17.50;34.80;;;;;;5147461;27;47289;-20
2022/03/20 08:27:42;;;;;;;8.65;6.00;;;17.40;34.70;;;;;;5147339;27;47857;-20
2022/03/20 08:30:12;;;;;;;10.77;6.55;;;17.40;35.70;;;;;;5146634;27;47165;-20
2022/03/20 08:32:39;;;;;;;8.90;6.13;;;17.40;36.20;;;;;;5138768;27;46769;-20
2022/03/20 08:35:07;;;;;;;7.82;6.13;;;17.40;35.90;;;;;;5147510;27;46833;-21
2022/03/20 08:37:34;;;;;;;7.50;5.88;;;17.40;36.00;;;;;;5146746;27;49074;-21
2022/03/20 08:40:03;;;;;;;5.28;4.70;;;17.40;36.10;;;;;;5145975;27;47388;-21
2022/03/20 08:42:30;;;;;;;7.93;4.95;;;17.40;36.10;;;;;;5144032;27;47099;-20
2022/03/20 08:44:56;;;;;;;8.98;7.20;;;17.40;35.90;;;;;;5151466;27;47302;-20
2022/03/20 08:47:25;;;;;;;7.80;6.40;;;17.40;36.30;;;;;;5146964;27;47837;-21
2022/03/20 08:49:52;;;;;;;10.45;7.57;;;17.40;36.60;;;;;;5146747;27;46732;-21
2022/03/20 08:52:19;;;;;;;10.63;7.57;;;17.30;37.10;;;;;;5147130;27;46769;-21
2022/03/20 08:54:46;;;;;;;11.10;8.52;;;17.30;37.40;;;;;;5146710;27;47017;-21
2022/03/20 08:57:15;;;;;;;12.20;9.07;;;17.20;37.80;;;;;;5147172;27;48974;-21
2022/03/20 08:59:44;;;;;;;12.65;8.98;;;17.20;38.30;;;;;;5143086;27;47022;-20
2022/03/20 09:02:12;;;;;;;14.43;9.18;;;17.20;38.50;;;;;;5137118;27;46982;-21
2022/03/20 09:04:39;;;;;;;11.38;8.65;;;17.20;39.10;;;;;;5145742;27;47065;-21
2022/03/20 09:07:06;;;;;;;17.83;9.65;;;17.20;39.20;;;;;;5145327;27;47877;-21
2022/03/20 09:09:32;;;;;;;13.15;9.25;;;17.20;39.60;;;;;;5145044;27;47072;-21
2022/03/20 09:12:00;;;;;;;14.13;9.93;;;17.20;39.50;;;;;;5147131;27;46885;-21
2022/03/20 09:14:28;;;;;;;17.67;10.70;;;17.20;39.80;;;;;;5150302;27;47703;-21
2022/03/20 09:19:39;;;;;;;15.20;10.40;;;17.30;39.80;;;;;;5143837;27;46942;-20
2022/03/20 09:22:07;;;;;;;12.48;9.68;;;17.30;39.80;;;;;;5146431;27;46994;-20
2022/03/20 09:24:33;;;;;;;14.57;9.60;;;17.30;39.80;;;;;;5146446;27;46907;-20
2022/03/20 09:27:02;;;;;;;17.15;9.82;;;17.40;40.00;;;;;;5144765;27;48232;-19
2022/03/20 09:29:30;;;;;;;14.93;9.02;;;17.40;40.00;;;;;;5144352;27;46971;-20
2022/03/20 09:31:57;;;;;;;15.75;9.68;;;17.40;40.20;;;;;;5145111;27;47163;-21
2022/03/20 09:34:24;;;;;;;14.07;8.93;;;17.40;40.30;;;;;;5144742;27;47259;-20
2022/03/20 09:36:51;;;;;;;14.50;9.23;;;17.40;40.50;;;;;;5155672;27;48344;-21
2022/03/20 09:39:18;;;;;;;13.25;9.40;;;17.50;40.40;;;;;;5148894;27;46819;-20
2022/03/20 09:41:45;;;;;;;13.18;9.52;;;17.50;40.50;;;;;;5152216;27;46892;-20
2022/03/20 09:44:15;;;;;;;11.95;9.50;;;17.50;40.60;;;;;;5150334;27;47152;-20
2022/03/20 09:46:43;;;;;;;13.02;8.77;;;17.50;40.50;;;;;;5149026;27;47016;-20
2022/03/20 09:49:09;;;;;;;12.23;8.43;;;17.50;40.50;;;;;;5155542;27;47296;-21
2022/03/20 09:51:36;;;;;;;14.60;9.30;;;17.60;40.60;;;;;;5170375;27;46895;-21
2022/03/20 09:54:03;;;;;;;14.02;9.18;;;17.60;40.60;;;;;;5152683;27;47090;-21
2022/03/20 09:56:29;;;;;;;13.70;10.02;;;17.60;40.60;;;;;;5150073;27;48231;-21
2022/03/20 09:58:56;;;;;;;11.57;9.43;;;17.70;41.10;;;;;;5145230;27;46984;-20
2022/03/20 10:01:24;;;;;;;11.32;9.00;;;17.70;40.70;;;;;;5149624;27;47025;-21
2022/03/20 10:04:09;;;;;;;14.73;9.75;;;17.70;40.80;;;;;;5158113;27;47294;-21
2022/03/20 10:06:39;;;;;;;12.85;9.80;;;17.70;41.40;;;;;;5149118;27;49022;-21
2022/03/20 10:09:06;;;;;;;11.90;9.20;;;17.80;41.60;;;;;;5149888;27;46980;-21
2022/03/20 10:11:35;;;;;;;15.95;10.05;;;17.80;41.50;;;;;;5149575;27;48402;-20
2022/03/20 10:14:14;;;;;;;11.77;9.30;;;17.80;41.50;;;;;;5148522;27;47079;-20
2022/03/20 10:16:41;;;;;;;14.55;9.95;;;17.80;41.40;;;;;;5149317;27;47070;-20
2022/03/20 10:19:34;;;;;;;13.40;9.10;;;17.80;41.60;;;;;;5147550;27;47198;-19
2022/03/20 10:22:02;;;;;;;15.50;8.50;;;17.90;41.50;;;;;;5124536;27;46861;-20
2022/03/20 10:24:30;;;;;;;11.60;8.60;;;17.90;41.40;;;;;;5147559;27;46845;-21
2022/03/20 10:27:14;;;;;;;16.85;8.52;;;18.00;41.30;;;;;;5131660;27;47098;-21
2022/03/20 10:29:51;;;;;;;14.10;9.70;;;18.00;41.30;;;;;;5149123;27;46868;-12
2022/03/20 10:32:18;;;;;;;11.63;8.57;;;18.00;41.10;;;;;;5148992;27;46991;-12
2022/03/20 10:34:50;;;;;;;12.20;8.73;;;18.00;41.10;;;;;;5148848;27;47228;-12
2022/03/20 10:37:17;;;;;;;13.32;8.52;;;18.10;41.00;;;;;;5149121;27;48227;-12
2022/03/20 10:39:44;;;;;;;18.95;8.98;;;18.20;41.10;;;;;;5149135;27;46916;-13
2022/03/20 10:42:11;;;;;;;15.88;8.07;;;18.20;40.80;;;;;;5149040;27;47019;-12
2022/03/20 10:44:38;;;;;;;14.18;9.35;;;18.30;40.80;;;;;;5149328;27;47297;-13
2022/03/20 10:47:10;;;;;;;17.15;8.82;;;18.40;40.80;;;;;;5143594;27;47664;-15
2022/03/20 10:49:37;;;;;;;16.40;8.88;;;18.40;40.00;;;;;;5135898;27;46812;-15
2022/03/20 10:52:06;;;;;;;14.27;10.32;;;18.50;40.20;;;;;;5134454;27;47019;-14
2022/03/20 10:54:39;;;;;;;16.63;9.27;;;18.60;40.00;;;;;;5148962;27;46888;-14
2022/03/20 10:57:06;;;;;;;20.30;9.07;;;18.60;39.90;;;;;;5138438;27;47833;-14
2022/03/20 10:59:33;;;;;;;12.48;8.18;;;18.70;39.80;;;;;;5158928;27;46908;-14
2022/03/20 11:02:00;;;;;;;10.52;8.38;;;18.80;39.50;;;;;;5169211;27;46838;-14
2022/03/20 11:04:27;;;;;;;13.95;8.93;;;18.90;39.20;;;;;;5170169;27;47071;-14
2022/03/20 11:06:55;;;;;;;13.60;9.18;;;19.00;39.20;;;;;;5148757;27;48168;-14
2022/03/20 11:09:23;;;;;;;11.52;7.57;;;19.00;38.50;;;;;;5148821;27;46989;-15
2022/03/20 11:11:51;;;;;;;10.38;7.85;;;19.10;38.30;;;;;;5138673;27;46907;-14
2022/03/20 11:14:19;;;;;;;9.05;7.88;;;19.10;38.10;;;;;;5143569;27;47114;-14
2022/03/20 11:16:48;;;;;;;12.32;7.90;;;19.20;37.90;;;;;;5151234;27;46996;-14
2022/03/20 11:19:15;;;;;;;10.23;8.75;;;19.30;37.70;;;;;;5137675;27;46935;-14
2022/03/20 11:21:44;;;;;;;10.10;7.35;;;19.30;38.20;;;;;;5161406;27;46901;-14
2022/03/20 11:24:11;;;;;;;12.77;8.60;;;19.40;37.20;;;;;;5148955;27;46899;-14
2022/03/20 11:26:40;;;;;;;9.32;7.47;;;19.50;36.90;;;;;;5136089;27;48125;-14
2022/03/20 11:29:08;;;;;;;9.88;8.38;;;19.60;37.00;;;;;;5140570;27;46988;-13
2022/03/20 11:31:35;;;;;;;11.30;8.10;;;19.70;36.30;;;;;;5148508;27;46896;-14
2022/03/20 11:34:03;;;;;;;10.65;7.47;;;19.70;35.80;;;;;;5148730;27;47117;-14
2022/03/20 11:36:29;;;;;;;10.18;8.20;;;19.80;36.00;;;;;;5149072;27;46967;-14
2022/03/20 11:39:11;;;;;;;11.63;8.02;;;19.90;35.50;;;;;;5146449;27;47454;-14
2022/03/20 11:41:40;;;;;;;11.43;8.25;;;20.00;35.40;;;;;;5153580;27;47091;-14
2022/03/20 11:44:20;;;;;;;10.32;7.72;;;20.00;35.30;;;;;;5167941;27;46955;-14
2022/03/20 11:46:46;;;;;;;16.80;9.00;;;20.10;35.20;;;;;;5168032;27;48788;-14
2022/03/20 11:49:23;;;;;;;13.18;8.32;;;20.20;34.90;;;;;;5151908;27;47087;-14
2022/03/20 11:52:09;;;;;;;13.35;8.75;;;20.20;34.50;;;;;;5147142;27;47019;-14
2022/03/20 11:54:55;;;;;;;15.07;7.93;;;20.30;34.40;;;;;;5160930;27;47117;-14
2022/03/20 11:57:42;;;;;;;12.43;7.60;;;20.30;33.90;;;;;;5158803;27;47985;-14
2022/03/20 12:00:18;;;;;;;13.25;8.18;;;20.40;33.70;;;;;;5146642;27;47313;-14
2022/03/20 12:02:54;;;;;;;16.33;7.07;;;20.50;33.90;;;;;;5148117;27;46971;-14
2022/03/20 12:05:29;;;;;;;11.57;7.63;;;20.60;34.10;;;;;;5145404;27;47101;-14
2022/03/20 12:08:01;;;;;;;9.85;6.95;;;20.80;33.60;;;;;;5155861;27;48094;-14
2022/03/20 12:10:31;;;;;;;10.50;7.78;;;20.90;33.70;;;;;;5143893;27;47166;-14
2022/03/20 12:13:05;;;;;;;14.35;8.15;;;21.00;33.10;;;;;;5145339;27;46883;-14
2022/03/20 12:15:33;;;;;;;11.82;8.57;;;21.00;32.90;;;;;;5143552;27;47123;-14
2022/03/20 12:18:01;;;;;;;10.45;8.07;;;21.10;32.90;;;;;;5126746;27;49148;-14
2022/03/20 12:21:02;;;;;;;10.60;8.18;;;21.10;32.50;;;;;;5143056;27;46754;-15
2022/03/20 12:23:32;;;;;;;15.30;7.78;;;21.10;32.50;;;;;;5144901;27;47009;-14
2022/03/20 12:25:59;;;;;;;15.18;7.57;;;21.20;32.50;;;;;;5147138;27;47205;-15
2022/03/20 12:28:30;;;;;;;12.43;7.15;;;21.20;33.00;;;;;;5152424;27;47113;-14
2022/03/20 12:30:57;;;;;;;13.52;7.60;;;21.30;32.90;;;;;;5147729;27;47430;-15
2022/03/20 12:33:25;;;;;;;13.93;8.05;;;21.40;32.00;;;;;;5147841;27;47003;-14
2022/03/20 12:35:52;;;;;;;11.65;7.60;;;21.40;31.70;;;;;;5140939;27;46900;-14
2022/03/20 12:38:41;;;;;;;15.63;7.70;;;21.50;31.60;;;;;;5163106;27;46847;-14
2022/03/20 12:41:09;;;;;;;13.43;7.43;;;21.50;31.20;;;;;;5147610;27;47205;-14
2022/03/20 12:43:37;;;;;;;11.70;7.03;;;21.50;30.90;;;;;;5146542;27;46949;-14
2022/03/20 12:46:04;;;;;;;11.32;7.43;;;21.60;30.90;;;;;;5147655;27;46910;-15
2022/03/20 12:48:33;;;;;;;11.18;6.40;;;21.70;31.10;;;;;;5161628;27;48340;-14
2022/03/20 12:51:03;;;;;;;10.93;7.45;;;21.80;31.10;;;;;;5164562;27;47529;-14
2022/03/20 12:53:37;;;;;;;12.52;7.85;;;21.80;30.90;;;;;;5148365;27;47066;-13
2022/03/20 12:56:06;;;;;;;10.55;7.20;;;21.90;30.60;;;;;;5127166;27;46974;-14
2022/03/20 12:58:33;;;;;;;11.70;7.70;;;21.90;30.40;;;;;;5155603;27;48166;-14
2022/03/20 13:01:07;;;;;;;11.20;8.43;;;22.00;30.00;;;;;;5165817;27;47039;-14
2022/03/20 13:03:34;;;;;;;9.93;7.15;;;22.10;30.20;;;;;;5167858;27;46931;-14
2022/03/20 13:06:01;;;;;;;16.75;7.60;;;22.20;30.00;;;;;;5151118;27;46997;-14
2022/03/20 13:08:29;;;;;;;11.93;7.60;;;22.30;29.80;;;;;;5162481;27;48130;-14
2022/03/20 13:10:56;;;;;;;10.65;7.05;;;22.30;29.50;;;;;;5146371;27;47006;-14
2022/03/20 13:13:28;;;;;;;14.00;7.13;;;22.30;29.40;;;;;;5150798;27;46868;-14
2022/03/20 13:15:55;;;;;;;11.32;7.38;;;22.40;29.40;;;;;;5148897;27;47021;-13
2022/03/20 13:18:25;;;;;;;9.93;6.90;;;22.50;29.00;;;;;;5149145;27;48110;-15
2022/03/20 13:20:52;;;;;;;11.13;7.63;;;22.50;28.60;;;;;;5166226;27;46882;-14
2022/03/20 13:23:19;;;;;;;8.27;6.57;;;22.50;28.50;;;;;;5153330;27;47132;-14
2022/03/20 13:25:48;;;;;;;9.50;6.50;;;22.60;28.10;;;;;;5149008;27;47021;-14
2022/03/20 13:28:23;;;;;;;8.48;6.20;;;22.60;28.10;;;;;;5168752;27;48908;-14